Terminal Aerodrome Forecast
Issued by NWS

Home | Current Version | Previous Version | Text Only | Print | Product List | Glossary On
Versions: 1 2 3 4 5 6 7 8 9 10 11 12 13 14 15 16 17 18 19 20 21 22 23 24 25 26 27 28 29 30 31 32 33 34 35 36 37 38 39 40 41 42
000
FTUS43 KDMX 271740
TAFMCW
TAF
KMCW 271740Z 2718/2818 34008KT P6SM SCT250
     FM280000 13003KT P6SM SCT030 BKN250
     FM280300 15008KT P6SM -SN OVC035
     FM281600 15013KT P6SM SCT035 OVC120=

USA.gov is the U.S. government's official web portal to all federal, state and local government web resources and services.